sensor_id;sensor_type;location;lat;lon;timestamp;pressure;altitude;pressure_sealevel;temperature;humidity
24230;BME280;12362;50.004;8.006;2024-02-23T00:00:49;98218.09;;;8.59;100.00
24230;BME280;12362;50.004;8.006;2024-02-23T00:03:15;98224.81;;;8.61;100.00
24230;BME280;12362;50.004;8.006;2024-02-23T00:05:40;98222.94;;;8.52;100.00
24230;BME280;12362;50.004;8.006;2024-02-23T00:08:06;98234.59;;;8.58;100.00
24230;BME280;12362;50.004;8.006;2024-02-23T00:10:32;98242.06;;;8.50;100.00
24230;BME280;12362;50.004;8.006;2024-02-23T00:12:57;98231.63;;;8.51;100.00
24230;BME280;12362;50.004;8.006;2024-02-23T00:15:23;98236.19;;;8.48;100.00
24230;BME280;12362;50.004;8.006;2024-02-23T00:17:50;98233.03;;;8.55;100.00
24230;BME280;12362;50.004;8.006;2024-02-23T00:20:16;98235.25;;;8.60;100.00
24230;BME280;12362;50.004;8.006;2024-02-23T00:22:41;98246.44;;;8.60;100.00
24230;BME280;12362;50.004;8.006;2024-02-23T00:25:07;98258.78;;;8.57;100.00
24230;BME280;12362;50.004;8.006;2024-02-23T00:27:33;98270.16;;;8.54;100.00
24230;BME280;12362;50.004;8.006;2024-02-23T00:29:59;98278.56;;;8.58;100.00
24230;BME280;12362;50.004;8.006;2024-02-23T00:32:25;98291.78;;;8.53;100.00
24230;BME280;12362;50.004;8.006;2024-02-23T00:34:50;98300.41;;;8.54;100.00
24230;BME280;12362;50.004;8.006;2024-02-23T00:37:16;98315.44;;;8.60;100.00
24230;BME280;12362;50.004;8.006;2024-02-23T00:39:41;98337.72;;;8.39;100.00
24230;BME280;12362;50.004;8.006;2024-02-23T00:42:07;98335.25;;;7.78;100.00
24230;BME280;12362;50.004;8.006;2024-02-23T00:44:32;98361.75;;;7.44;100.00
24230;BME280;12362;50.004;8.006;2024-02-23T00:46:58;98349.69;;;7.32;100.00
24230;BME280;12362;50.004;8.006;2024-02-23T00:49:27;98351.78;;;7.27;100.00
24230;BME280;12362;50.004;8.006;2024-02-23T00:51:53;98357.03;;;7.14;100.00
24230;BME280;12362;50.004;8.006;2024-02-23T00:54:18;98357.25;;;7.11;100.00
24230;BME280;12362;50.004;8.006;2024-02-23T00:56:50;98358.06;;;7.11;100.00
24230;BME280;12362;50.004;8.006;2024-02-23T00:59:16;98366.03;;;7.08;100.00
24230;BME280;12362;50.004;8.006;2024-02-23T01:01:41;98371.69;;;7.01;100.00
24230;BME280;12362;50.004;8.006;2024-02-23T01:04:07;98379.53;;;7.12;100.00
24230;BME280;12362;50.004;8.006;2024-02-23T01:06:32;98380.03;;;7.04;100.00
24230;BME280;12362;50.004;8.006;2024-02-23T01:08:58;98396.34;;;7.05;100.00
24230;BME280;12362;50.004;8.006;2024-02-23T01:11:23;98390.97;;;7.08;100.00
24230;BME280;12362;50.004;8.006;2024-02-23T01:13:49;98404.50;;;7.11;100.00
24230;BME280;12362;50.004;8.006;2024-02-23T01:16:15;98382.84;;;7.14;100.00
24230;BME280;12362;50.004;8.006;2024-02-23T01:18:40;98381.59;;;7.19;100.00
24230;BME280;12362;50.004;8.006;2024-02-23T01:21:06;98379.94;;;7.18;100.00
24230;BME280;12362;50.004;8.006;2024-02-23T01:23:31;98387.50;;;7.21;100.00
24230;BME280;12362;50.004;8.006;2024-02-23T01:25:57;98382.72;;;7.15;100.00
24230;BME280;12362;50.004;8.006;2024-02-23T01:28:24;98387.28;;;7.12;100.00
24230;BME280;12362;50.004;8.006;2024-02-23T01:30:50;98391.28;;;7.03;100.00
24230;BME280;12362;50.004;8.006;2024-02-23T01:33:15;98394.19;;;6.99;100.00
24230;BME280;12362;50.004;8.006;2024-02-23T01:35:41;98405.19;;;6.88;100.00
24230;BME280;12362;50.004;8.006;2024-02-23T01:38:06;98408.91;;;6.84;100.00
24230;BME280;12362;50.004;8.006;2024-02-23T01:40:32;98418.00;;;6.90;100.00
24230;BME280;12362;50.004;8.006;2024-02-23T01:43:05;98426.25;;;6.95;100.00
24230;BME280;12362;50.004;8.006;2024-02-23T01:45:31;98432.22;;;6.83;100.00
24230;BME280;12362;50.004;8.006;2024-02-23T01:47:57;98427.91;;;6.96;100.00
24230;BME280;12362;50.004;8.006;2024-02-23T01:50:24;98429.47;;;6.98;100.00
24230;BME280;12362;50.004;8.006;2024-02-23T01:52:50;98434.00;;;6.95;100.00
24230;BME280;12362;50.004;8.006;2024-02-23T01:55:19;98440.78;;;6.83;100.00
24230;BME280;12362;50.004;8.006;2024-02-23T01:57:45;98443.13;;;6.74;100.00
24230;BME280;12362;50.004;8.006;2024-02-23T02:00:15;98451.78;;;6.73;100.00
24230;BME280;12362;50.004;8.006;2024-02-23T02:02:47;98462.47;;;6.81;100.00
24230;BME280;12362;50.004;8.006;2024-02-23T02:05:14;98467.50;;;6.82;100.00
24230;BME280;12362;50.004;8.006;2024-02-23T02:07:40;98462.72;;;6.76;100.00
24230;BME280;12362;50.004;8.006;2024-02-23T02:10:08;98468.91;;;6.74;100.00
24230;BME280;12362;50.004;8.006;2024-02-23T02:12:34;98472.22;;;6.76;100.00
24230;BME280;12362;50.004;8.006;2024-02-23T02:14:59;98470.75;;;6.72;100.00
24230;BME280;12362;50.004;8.006;2024-02-23T02:17:27;98467.38;;;6.71;100.00
24230;BME280;12362;50.004;8.006;2024-02-23T02:19:53;98473.31;;;6.59;100.00
24230;BME280;12362;50.004;8.006;2024-02-23T02:22:18;98482.88;;;6.57;100.00
24230;BME280;12362;50.004;8.006;2024-02-23T02:24:44;98486.50;;;6.55;100.00
24230;BME280;12362;50.004;8.006;2024-02-23T02:27:12;98476.56;;;6.49;100.00
24230;BME280;12362;50.004;8.006;2024-02-23T02:29:37;98480.25;;;6.45;100.00
24230;BME280;12362;50.004;8.006;2024-02-23T02:32:03;98478.88;;;6.39;100.00
24230;BME280;12362;50.004;8.006;2024-02-23T02:34:29;98489.75;;;6.30;100.00
24230;BME280;12362;50.004;8.006;2024-02-23T02:36:55;98501.66;;;6.33;100.00
24230;BME280;12362;50.004;8.006;2024-02-23T02:39:21;98492.88;;;6.35;100.00
24230;BME280;12362;50.004;8.006;2024-02-23T02:41:48;98492.97;;;6.34;100.00
24230;BME280;12362;50.004;8.006;2024-02-23T02:44:14;98492.78;;;6.37;100.00
24230;BME280;12362;50.004;8.006;2024-02-23T02:46:40;98491.50;;;6.44;100.00
24230;BME280;12362;50.004;8.006;2024-02-23T02:49:06;98499.69;;;6.50;100.00
24230;BME280;12362;50.004;8.006;2024-02-23T02:51:32;98501.13;;;6.54;100.00
24230;BME280;12362;50.004;8.006;2024-02-23T02:53:57;98502.88;;;6.54;100.00
24230;BME280;12362;50.004;8.006;2024-02-23T02:56:32;98506.66;;;6.48;100.00
24230;BME280;12362;50.004;8.006;2024-02-23T02:58:57;98511.38;;;6.42;100.00
24230;BME280;12362;50.004;8.006;2024-02-23T03:01:23;98521.75;;;6.40;100.00
24230;BME280;12362;50.004;8.006;2024-02-23T03:03:48;98520.41;;;6.35;100.00
24230;BME280;12362;50.004;8.006;2024-02-23T03:06:14;98516.25;;;6.32;100.00
24230;BME280;12362;50.004;8.006;2024-02-23T03:08:42;98519.19;;;6.40;100.00
24230;BME280;12362;50.004;8.006;2024-02-23T03:11:07;98523.81;;;6.35;100.00
24230;BME280;12362;50.004;8.006;2024-02-23T03:13:33;98526.13;;;6.26;100.00
24230;BME280;12362;50.004;8.006;2024-02-23T03:15:59;98528.63;;;6.28;100.00
24230;BME280;12362;50.004;8.006;2024-02-23T03:18:25;98536.25;;;6.29;100.00
24230;BME280;12362;50.004;8.006;2024-02-23T03:20:52;98529.91;;;6.21;100.00
24230;BME280;12362;50.004;8.006;2024-02-23T03:23:18;98542.72;;;6.08;100.00
24230;BME280;12362;50.004;8.006;2024-02-23T03:25:43;98532.75;;;6.16;100.00
24230;BME280;12362;50.004;8.006;2024-02-23T03:28:09;98529.44;;;6.14;100.00
24230;BME280;12362;50.004;8.006;2024-02-23T03:30:34;98531.22;;;6.00;100.00
24230;BME280;12362;50.004;8.006;2024-02-23T03:33:00;98539.00;;;5.98;100.00
24230;BME280;12362;50.004;8.006;2024-02-23T03:35:25;98545.56;;;5.90;100.00
24230;BME280;12362;50.004;8.006;2024-02-23T03:37:50;98553.91;;;5.93;100.00
24230;BME280;12362;50.004;8.006;2024-02-23T03:40:16;98551.06;;;6.12;100.00
24230;BME280;12362;50.004;8.006;2024-02-23T03:42:44;98535.50;;;6.13;100.00
24230;BME280;12362;50.004;8.006;2024-02-23T03:45:09;98550.50;;;6.21;100.00
24230;BME280;12362;50.004;8.006;2024-02-23T03:47:35;98546.56;;;6.29;100.00
24230;BME280;12362;50.004;8.006;2024-02-23T03:50:00;98553.53;;;6.27;100.00
24230;BME280;12362;50.004;8.006;2024-02-23T03:52:26;98548.03;;;6.33;100.00
24230;BME280;12362;50.004;8.006;2024-02-23T03:55:04;98563.91;;;6.39;100.00
24230;BME280;12362;50.004;8.006;2024-02-23T03:57:30;98560.53;;;6.39;100.00
24230;BME280;12362;50.004;8.006;2024-02-23T03:59:57;98561.56;;;6.36;100.00
24230;BME280;12362;50.004;8.006;2024-02-23T04:02:22;98568.09;;;6.42;100.00
24230;BME280;12362;50.004;8.006;2024-02-23T04:04:48;98568.81;;;6.44;100.00
24230;BME280;12362;50.004;8.006;2024-02-23T04:07:14;98578.22;;;6.45;100.00
24230;BME280;12362;50.004;8.006;2024-02-23T04:09:40;98573.06;;;6.45;100.00
24230;BME280;12362;50.004;8.006;2024-02-23T04:12:05;98589.22;;;6.47;100.00
24230;BME280;12362;50.004;8.006;2024-02-23T04:14:32;98582.63;;;6.43;100.00
24230;BME280;12362;50.004;8.006;2024-02-23T04:17:04;98584.28;;;6.44;100.00
24230;BME280;12362;50.004;8.006;2024-02-23T04:19:29;98588.78;;;6.40;100.00
24230;BME280;12362;50.004;8.006;2024-02-23T04:21:55;98578.75;;;6.36;100.00
24230;BME280;12362;50.004;8.006;2024-02-23T04:24:20;98587.59;;;6.32;100.00
24230;BME280;12362;50.004;8.006;2024-02-23T04:26:46;98577.59;;;6.28;100.00
24230;BME280;12362;50.004;8.006;2024-02-23T04:29:11;98583.56;;;6.28;100.00
24230;BME280;12362;50.004;8.006;2024-02-23T04:31:37;98579.88;;;6.18;100.00
24230;BME280;12362;50.004;8.006;2024-02-23T04:34:03;98574.72;;;6.18;100.00
24230;BME280;12362;50.004;8.006;2024-02-23T04:36:29;98571.22;;;6.19;100.00
24230;BME280;12362;50.004;8.006;2024-02-23T04:38:54;98566.53;;;6.26;100.00
24230;BME280;12362;50.004;8.006;2024-02-23T04:41:20;98554.00;;;6.33;100.00
24230;BME280;12362;50.004;8.006;2024-02-23T04:43:48;98551.59;;;6.30;100.00
24230;BME280;12362;50.004;8.006;2024-02-23T04:46:14;98547.94;;;6.21;100.00
24230;BME280;12362;50.004;8.006;2024-02-23T04:48:40;98549.03;;;6.17;100.00
24230;BME280;12362;50.004;8.006;2024-02-23T04:51:07;98542.25;;;6.16;100.00
24230;BME280;12362;50.004;8.006;2024-02-23T04:53:38;98549.97;;;6.16;100.00
24230;BME280;12362;50.004;8.006;2024-02-23T04:56:04;98548.50;;;6.12;100.00
24230;BME280;12362;50.004;8.006;2024-02-23T04:58:30;98543.16;;;6.01;100.00
24230;BME280;12362;50.004;8.006;2024-02-23T05:00:55;98548.59;;;5.96;100.00
24230;BME280;12362;50.004;8.006;2024-02-23T05:03:21;98551.06;;;5.98;100.00
24230;BME280;12362;50.004;8.006;2024-02-23T05:05:46;98544.25;;;5.97;100.00
24230;BME280;12362;50.004;8.006;2024-02-23T05:08:12;98553.00;;;5.94;100.00
24230;BME280;12362;50.004;8.006;2024-02-23T05:10:37;98539.84;;;5.85;100.00
24230;BME280;12362;50.004;8.006;2024-02-23T05:13:03;98552.34;;;5.77;100.00
24230;BME280;12362;50.004;8.006;2024-02-23T05:15:29;98550.28;;;5.68;100.00
24230;BME280;12362;50.004;8.006;2024-02-23T05:17:54;98544.41;;;5.66;100.00
24230;BME280;12362;50.004;8.006;2024-02-23T05:20:19;98549.81;;;5.61;100.00
24230;BME280;12362;50.004;8.006;2024-02-23T05:22:45;98555.94;;;5.59;100.00
24230;BME280;12362;50.004;8.006;2024-02-23T05:25:10;98559.00;;;5.65;100.00
24230;BME280;12362;50.004;8.006;2024-02-23T05:27:36;98557.91;;;5.69;100.00
24230;BME280;12362;50.004;8.006;2024-02-23T05:30:02;98561.88;;;5.75;100.00
24230;BME280;12362;50.004;8.006;2024-02-23T05:32:28;98569.34;;;5.79;100.00
24230;BME280;12362;50.004;8.006;2024-02-23T05:34:53;98563.53;;;5.76;100.00
24230;BME280;12362;50.004;8.006;2024-02-23T05:37:19;98553.22;;;5.76;100.00
24230;BME280;12362;50.004;8.006;2024-02-23T05:39:45;98561.88;;;5.75;100.00
24230;BME280;12362;50.004;8.006;2024-02-23T05:42:12;98562.69;;;5.75;100.00
24230;BME280;12362;50.004;8.006;2024-02-23T05:44:37;98566.78;;;5.79;100.00
24230;BME280;12362;50.004;8.006;2024-02-23T05:47:03;98558.03;;;5.82;100.00
24230;BME280;12362;50.004;8.006;2024-02-23T05:49:28;98572.41;;;5.86;100.00
24230;BME280;12362;50.004;8.006;2024-02-23T05:51:54;98568.28;;;5.97;100.00
24230;BME280;12362;50.004;8.006;2024-02-23T05:54:20;98580.69;;;6.05;100.00
24230;BME280;12362;50.004;8.006;2024-02-23T05:57:10;98569.00;;;6.13;100.00
24230;BME280;12362;50.004;8.006;2024-02-23T05:59:36;98570.59;;;6.16;100.00
24230;BME280;12362;50.004;8.006;2024-02-23T06:02:05;98580.91;;;6.16;100.00
24230;BME280;12362;50.004;8.006;2024-02-23T06:04:31;98577.13;;;6.07;100.00
24230;BME280;12362;50.004;8.006;2024-02-23T06:06:56;98580.88;;;6.02;100.00
24230;BME280;12362;50.004;8.006;2024-02-23T06:09:22;98591.47;;;5.97;100.00
24230;BME280;12362;50.004;8.006;2024-02-23T06:11:47;98594.56;;;6.02;100.00
24230;BME280;12362;50.004;8.006;2024-02-23T06:14:13;98594.41;;;6.05;100.00
24230;BME280;12362;50.004;8.006;2024-02-23T06:16:38;98589.34;;;6.18;100.00
24230;BME280;12362;50.004;8.006;2024-02-23T06:19:05;98595.22;;;6.20;100.00
24230;BME280;12362;50.004;8.006;2024-02-23T06:21:31;98593.50;;;6.20;100.00
24230;BME280;12362;50.004;8.006;2024-02-23T06:23:57;98600.03;;;6.26;100.00
24230;BME280;12362;50.004;8.006;2024-02-23T06:26:23;98602.50;;;6.27;100.00
24230;BME280;12362;50.004;8.006;2024-02-23T06:28:48;98606.09;;;6.25;100.00
24230;BME280;12362;50.004;8.006;2024-02-23T06:31:14;98605.94;;;6.28;100.00
24230;BME280;12362;50.004;8.006;2024-02-23T06:33:40;98609.31;;;6.28;100.00
24230;BME280;12362;50.004;8.006;2024-02-23T06:36:06;98616.88;;;6.31;100.00
24230;BME280;12362;50.004;8.006;2024-02-23T06:38:33;98610.69;;;6.33;100.00
24230;BME280;12362;50.004;8.006;2024-02-23T06:40:59;98612.25;;;6.36;100.00
24230;BME280;12362;50.004;8.006;2024-02-23T06:43:24;98612.25;;;6.36;100.00
24230;BME280;12362;50.004;8.006;2024-02-23T06:45:50;98611.50;;;6.34;100.00
24230;BME280;12362;50.004;8.006;2024-02-23T06:48:16;98616.59;;;6.35;100.00
24230;BME280;12362;50.004;8.006;2024-02-23T06:50:45;98622.50;;;6.37;100.00
24230;BME280;12362;50.004;8.006;2024-02-23T06:53:10;98625.59;;;6.42;100.00
24230;BME280;12362;50.004;8.006;2024-02-23T06:55:36;98631.03;;;6.52;100.00
24230;BME280;12362;50.004;8.006;2024-02-23T06:58:02;98626.16;;;6.47;100.00
24230;BME280;12362;50.004;8.006;2024-02-23T07:00:27;98631.38;;;6.46;100.00
24230;BME280;12362;50.004;8.006;2024-02-23T07:02:53;98628.56;;;6.50;100.00
24230;BME280;12362;50.004;8.006;2024-02-23T07:05:19;98637.22;;;6.49;100.00
24230;BME280;12362;50.004;8.006;2024-02-23T07:07:44;98642.09;;;6.54;100.00
24230;BME280;12362;50.004;8.006;2024-02-23T07:10:10;98639.50;;;6.54;100.00
24230;BME280;12362;50.004;8.006;2024-02-23T07:12:37;98641.16;;;6.55;100.00
24230;BME280;12362;50.004;8.006;2024-02-23T07:15:02;98636.53;;;6.60;100.00
24230;BME280;12362;50.004;8.006;2024-02-23T07:17:28;98628.63;;;6.63;100.00
24230;BME280;12362;50.004;8.006;2024-02-23T07:19:53;98628.06;;;6.72;100.00
24230;BME280;12362;50.004;8.006;2024-02-23T07:22:19;98630.75;;;6.70;100.00
24230;BME280;12362;50.004;8.006;2024-02-23T07:24:48;98634.44;;;6.66;100.00
24230;BME280;12362;50.004;8.006;2024-02-23T07:27:14;98640.44;;;6.67;100.00
24230;BME280;12362;50.004;8.006;2024-02-23T07:29:40;98638.81;;;6.78;100.00
24230;BME280;12362;50.004;8.006;2024-02-23T07:32:05;98641.34;;;6.80;100.00
24230;BME280;12362;50.004;8.006;2024-02-23T07:34:31;98640.66;;;6.76;100.00
24230;BME280;12362;50.004;8.006;2024-02-23T07:36:57;98648.16;;;6.81;100.00
24230;BME280;12362;50.004;8.006;2024-02-23T07:39:22;98648.84;;;6.83;100.00
24230;BME280;12362;50.004;8.006;2024-02-23T07:41:47;98656.06;;;6.92;100.00
24230;BME280;12362;50.004;8.006;2024-02-23T07:44:13;98655.22;;;6.91;100.00
24230;BME280;12362;50.004;8.006;2024-02-23T07:46:38;98646.00;;;6.87;100.00
24230;BME280;12362;50.004;8.006;2024-02-23T07:49:04;98653.94;;;6.98;100.00
24230;BME280;12362;50.004;8.006;2024-02-23T07:51:31;98651.22;;;7.00;100.00
24230;BME280;12362;50.004;8.006;2024-02-23T07:53:57;98669.59;;;6.95;100.00
24230;BME280;12362;50.004;8.006;2024-02-23T07:56:22;98659.91;;;6.99;100.00
24230;BME280;12362;50.004;8.006;2024-02-23T07:58:48;98664.94;;;7.00;100.00
24230;BME280;12362;50.004;8.006;2024-02-23T08:01:16;98670.97;;;7.01;100.00
24230;BME280;12362;50.004;8.006;2024-02-23T08:03:42;98658.41;;;6.95;100.00
24230;BME280;12362;50.004;8.006;2024-02-23T08:06:07;98660.56;;;6.88;100.00
24230;BME280;12362;50.004;8.006;2024-02-23T08:08:33;98662.41;;;6.86;100.00
24230;BME280;12362;50.004;8.006;2024-02-23T08:11:01;98673.72;;;6.84;100.00
24230;BME280;12362;50.004;8.006;2024-02-23T08:13:27;98665.72;;;6.88;100.00
24230;BME280;12362;50.004;8.006;2024-02-23T08:15:52;98669.94;;;6.89;100.00
24230;BME280;12362;50.004;8.006;2024-02-23T08:18:18;98670.63;;;6.93;100.00
24230;BME280;12362;50.004;8.006;2024-02-23T08:20:43;98670.50;;;6.94;100.00
24230;BME280;12362;50.004;8.006;2024-02-23T08:23:08;98675.28;;;7.00;100.00
24230;BME280;12362;50.004;8.006;2024-02-23T08:25:35;98677.41;;;6.94;100.00
24230;BME280;12362;50.004;8.006;2024-02-23T08:28:01;98679.97;;;6.94;100.00
24230;BME280;12362;50.004;8.006;2024-02-23T08:30:26;98681.16;;;7.02;100.00
24230;BME280;12362;50.004;8.006;2024-02-23T08:32:52;98686.72;;;6.96;100.00
24230;BME280;12362;50.004;8.006;2024-02-23T08:35:17;98677.50;;;6.92;100.00
24230;BME280;12362;50.004;8.006;2024-02-23T08:37:43;98681.00;;;7.05;100.00
24230;BME280;12362;50.004;8.006;2024-02-23T08:40:09;98679.78;;;7.11;100.00
24230;BME280;12362;50.004;8.006;2024-02-23T08:42:35;98681.25;;;7.15;100.00
24230;BME280;12362;50.004;8.006;2024-02-23T08:45:00;98681.47;;;7.24;100.00
24230;BME280;12362;50.004;8.006;2024-02-23T08:47:26;98687.50;;;7.51;100.00
24230;BME280;12362;50.004;8.006;2024-02-23T08:49:57;98676.09;;;7.67;100.00
24230;BME280;12362;50.004;8.006;2024-02-23T08:52:22;98688.16;;;7.93;100.00
24230;BME280;12362;50.004;8.006;2024-02-23T08:54:48;98681.63;;;7.88;100.00
24230;BME280;12362;50.004;8.006;2024-02-23T08:57:13;98685.13;;;7.87;100.00
24230;BME280;12362;50.004;8.006;2024-02-23T08:59:42;98687.75;;;7.99;100.00
24230;BME280;12362;50.004;8.006;2024-02-23T09:02:08;98683.53;;;8.10;100.00
24230;BME280;12362;50.004;8.006;2024-02-23T09:04:35;98682.34;;;8.28;100.00
24230;BME280;12362;50.004;8.006;2024-02-23T09:07:01;98672.72;;;8.18;100.00
24230;BME280;12362;50.004;8.006;2024-02-23T09:09:27;98676.53;;;8.25;100.00
24230;BME280;12362;50.004;8.006;2024-02-23T09:11:52;98667.78;;;8.27;100.00
24230;BME280;12362;50.004;8.006;2024-02-23T09:14:18;98672.41;;;8.72;100.00
24230;BME280;12362;50.004;8.006;2024-02-23T09:16:43;98660.97;;;9.00;100.00
24230;BME280;12362;50.004;8.006;2024-02-23T09:19:10;98653.47;;;8.59;100.00
24230;BME280;12362;50.004;8.006;2024-02-23T09:21:35;98666.41;;;8.59;100.00
24230;BME280;12362;50.004;8.006;2024-02-23T09:24:01;98656.28;;;8.44;100.00
24230;BME280;12362;50.004;8.006;2024-02-23T09:26:26;98658.00;;;8.68;100.00
24230;BME280;12362;50.004;8.006;2024-02-23T09:28:52;98668.69;;;8.39;100.00
24230;BME280;12362;50.004;8.006;2024-02-23T09:31:17;98665.91;;;8.42;100.00
24230;BME280;12362;50.004;8.006;2024-02-23T09:33:43;98659.19;;;8.39;100.00
24230;BME280;12362;50.004;8.006;2024-02-23T09:36:09;98668.91;;;8.23;100.00
24230;BME280;12362;50.004;8.006;2024-02-23T09:38:35;98667.25;;;8.47;100.00
24230;BME280;12362;50.004;8.006;2024-02-23T09:41:01;98664.63;;;8.60;100.00
24230;BME280;12362;50.004;8.006;2024-02-23T09:43:29;98669.53;;;8.39;100.00
24230;BME280;12362;50.004;8.006;2024-02-23T09:45:57;98667.78;;;8.27;100.00
24230;BME280;12362;50.004;8.006;2024-02-23T09:48:23;98666.31;;;8.23;100.00
24230;BME280;12362;50.004;8.006;2024-02-23T09:50:49;98663.81;;;8.47;100.00
24230;BME280;12362;50.004;8.006;2024-02-23T09:53:15;98666.22;;;8.62;100.00
24230;BME280;12362;50.004;8.006;2024-02-23T09:55:43;98652.75;;;8.57;100.00
24230;BME280;12362;50.004;8.006;2024-02-23T09:58:12;98660.72;;;8.67;100.00
24230;BME280;12362;50.004;8.006;2024-02-23T10:00:40;98652.41;;;8.87;100.00
24230;BME280;12362;50.004;8.006;2024-02-23T10:03:06;98661.75;;;9.12;100.00
24230;BME280;12362;50.004;8.006;2024-02-23T10:05:31;98646.47;;;10.25;100.00
24230;BME280;12362;50.004;8.006;2024-02-23T10:07:57;98645.94;;;10.87;100.00
24230;BME280;12362;50.004;8.006;2024-02-23T10:10:30;98640.03;;;10.63;100.00
24230;BME280;12362;50.004;8.006;2024-02-23T10:12:59;98646.97;;;10.63;100.00
24230;BME280;12362;50.004;8.006;2024-02-23T10:15:25;98650.28;;;10.54;100.00
24230;BME280;12362;50.004;8.006;2024-02-23T10:17:51;98648.66;;;10.07;100.00
24230;BME280;12362;50.004;8.006;2024-02-23T10:20:17;98644.13;;;10.33;100.00
24230;BME280;12362;50.004;8.006;2024-02-23T10:22:43;98647.16;;;10.16;100.00
24230;BME280;12362;50.004;8.006;2024-02-23T10:25:09;98654.72;;;9.38;100.00
24230;BME280;12362;50.004;8.006;2024-02-23T10:27:34;98654.38;;;9.42;100.00
24230;BME280;12362;50.004;8.006;2024-02-23T10:30:00;98659.06;;;9.14;100.00
24230;BME280;12362;50.004;8.006;2024-02-23T10:32:29;98663.44;;;9.01;100.00
24230;BME280;12362;50.004;8.006;2024-02-23T10:35:00;98666.53;;;9.06;100.00
24230;BME280;12362;50.004;8.006;2024-02-23T10:37:26;98671.66;;;9.31;100.00
24230;BME280;12362;50.004;8.006;2024-02-23T10:39:55;98659.94;;;9.49;100.00
24230;BME280;12362;50.004;8.006;2024-02-23T10:42:23;98670.66;;;9.44;100.00
24230;BME280;12362;50.004;8.006;2024-02-23T10:44:50;98664.09;;;9.51;100.00
24230;BME280;12362;50.004;8.006;2024-02-23T10:47:17;98667.31;;;9.89;100.00
24230;BME280;12362;50.004;8.006;2024-02-23T10:49:45;98654.56;;;10.09;100.00
24230;BME280;12362;50.004;8.006;2024-02-23T10:52:12;98650.34;;;10.19;100.00
24230;BME280;12362;50.004;8.006;2024-02-23T10:54:39;98645.66;;;10.35;100.00
24230;BME280;12362;50.004;8.006;2024-02-23T10:57:06;98628.09;;;11.04;100.00
24230;BME280;12362;50.004;8.006;2024-02-23T10:59:32;98627.75;;;10.87;100.00
24230;BME280;12362;50.004;8.006;2024-02-23T11:01:59;98632.44;;;10.93;100.00
24230;BME280;12362;50.004;8.006;2024-02-23T11:04:26;98613.38;;;11.25;100.00
24230;BME280;12362;50.004;8.006;2024-02-23T11:06:54;98617.88;;;11.23;100.00
24230;BME280;12362;50.004;8.006;2024-02-23T11:09:24;98603.09;;;11.35;100.00
24230;BME280;12362;50.004;8.006;2024-02-23T11:11:57;98594.69;;;11.42;97.99
24230;BME280;12362;50.004;8.006;2024-02-23T11:14:31;98587.66;;;12.05;88.65
24230;BME280;12362;50.004;8.006;2024-02-23T11:17:00;98604.44;;;11.50;82.01
24230;BME280;12362;50.004;8.006;2024-02-23T11:19:37;98600.53;;;11.55;84.28
24230;BME280;12362;50.004;8.006;2024-02-23T11:22:03;98593.00;;;12.34;78.91
24230;BME280;12362;50.004;8.006;2024-02-23T11:24:30;98599.94;;;11.20;82.22
24230;BME280;12362;50.004;8.006;2024-02-23T11:26:59;98608.63;;;10.22;89.64
24230;BME280;12362;50.004;8.006;2024-02-23T11:29:33;98616.75;;;10.18;98.11
24230;BME280;12362;50.004;8.006;2024-02-23T11:32:00;98616.97;;;10.04;99.68
24230;BME280;12362;50.004;8.006;2024-02-23T11:34:29;98612.88;;;10.23;100.00
24230;BME280;12362;50.004;8.006;2024-02-23T11:36:55;98624.91;;;10.35;100.00
24230;BME280;12362;50.004;8.006;2024-02-23T11:39:23;98629.06;;;9.93;100.00
24230;BME280;12362;50.004;8.006;2024-02-23T11:41:49;98626.09;;;9.63;100.00
24230;BME280;12362;50.004;8.006;2024-02-23T11:44:15;98629.94;;;9.81;100.00
24230;BME280;12362;50.004;8.006;2024-02-23T11:46:43;98617.25;;;9.89;100.00
24230;BME280;12362;50.004;8.006;2024-02-23T11:49:10;98622.97;;;9.70;100.00
24230;BME280;12362;50.004;8.006;2024-02-23T11:51:36;98618.75;;;9.80;100.00
24230;BME280;12362;50.004;8.006;2024-02-23T11:54:01;98629.97;;;9.92;100.00
24230;BME280;12362;50.004;8.006;2024-02-23T11:56:29;98628.31;;;9.80;94.53
24230;BME280;12362;50.004;8.006;2024-02-23T11:58:54;98618.03;;;10.12;94.36
24230;BME280;12362;50.004;8.006;2024-02-23T12:01:20;98632.22;;;9.96;93.08
24230;BME280;12362;50.004;8.006;2024-02-23T12:03:46;98619.53;;;10.04;93.18
24230;BME280;12362;50.004;8.006;2024-02-23T12:09:26;98622.25;;;10.02;94.64
24230;BME280;12362;50.004;8.006;2024-02-23T12:11:52;98627.25;;;9.82;97.31
24230;BME280;12362;50.004;8.006;2024-02-23T12:14:18;98625.91;;;10.00;100.00
24230;BME280;12362;50.004;8.006;2024-02-23T12:16:44;98639.41;;;9.93;97.90
24230;BME280;12362;50.004;8.006;2024-02-23T12:19:10;98634.09;;;9.94;98.24
24230;BME280;12362;50.004;8.006;2024-02-23T12:21:36;98641.88;;;9.94;98.19
24230;BME280;12362;50.004;8.006;2024-02-23T12:24:04;98644.69;;;9.91;98.75
24230;BME280;12362;50.004;8.006;2024-02-23T12:26:31;98647.59;;;9.99;99.35
24230;BME280;12362;50.004;8.006;2024-02-23T12:29:01;98642.28;;;9.77;94.77
24230;BME280;12362;50.004;8.006;2024-02-23T12:31:28;98633.50;;;9.91;91.38
24230;BME280;12362;50.004;8.006;2024-02-23T12:33:56;98635.72;;;9.84;93.63
24230;BME280;12362;50.004;8.006;2024-02-23T12:36:23;98623.44;;;9.98;90.27
24230;BME280;12362;50.004;8.006;2024-02-23T12:38:48;98624.41;;;10.19;91.13
24230;BME280;12362;50.004;8.006;2024-02-23T12:41:14;98616.78;;;10.40;89.07
24230;BME280;12362;50.004;8.006;2024-02-23T12:43:40;98628.66;;;10.20;90.98
24230;BME280;12362;50.004;8.006;2024-02-23T12:46:05;98614.03;;;10.19;93.56
24230;BME280;12362;50.004;8.006;2024-02-23T12:48:33;98623.97;;;10.25;94.25
24230;BME280;12362;50.004;8.006;2024-02-23T12:50:59;98616.38;;;10.11;92.84
24230;BME280;12362;50.004;8.006;2024-02-23T12:53:38;98613.59;;;10.58;89.34
24230;BME280;12362;50.004;8.006;2024-02-23T12:56:09;98615.13;;;10.61;87.87
24230;BME280;12362;50.004;8.006;2024-02-23T12:58:39;98616.88;;;10.82;88.11